sensor_id;sensor_type;location;lat;lon;timestamp;P1;durP1;ratioP1;P2;durP2;ratioP2
4462;SDS011;2244;50.200;8.220;2023-03-23T00:02:13;9.70;;;1.87;;
4462;SDS011;2244;50.200;8.220;2023-03-23T00:04:39;9.90;;;2.30;;
4462;SDS011;2244;50.200;8.220;2023-03-23T00:07:07;8.30;;;1.47;;
4462;SDS011;2244;50.200;8.220;2023-03-23T00:09:34;9.33;;;1.87;;
4462;SDS011;2244;50.200;8.220;2023-03-23T00:12:02;7.80;;;1.30;;
4462;SDS011;2244;50.200;8.220;2023-03-23T00:14:32;8.17;;;1.60;;
4462;SDS011;2244;50.200;8.220;2023-03-23T00:17:03;10.37;;;1.40;;
4462;SDS011;2244;50.200;8.220;2023-03-23T00:19:30;7.90;;;1.50;;
4462;SDS011;2244;50.200;8.220;2023-03-23T00:21:58;8.67;;;1.50;;
4462;SDS011;2244;50.200;8.220;2023-03-23T00:24:26;8.07;;;1.37;;
4462;SDS011;2244;50.200;8.220;2023-03-23T00:26:52;7.73;;;1.30;;
4462;SDS011;2244;50.200;8.220;2023-03-23T00:29:20;7.97;;;1.27;;
4462;SDS011;2244;50.200;8.220;2023-03-23T00:31:48;9.17;;;1.57;;
4462;SDS011;2244;50.200;8.220;2023-03-23T00:34:15;12.23;;;1.60;;
4462;SDS011;2244;50.200;8.220;2023-03-23T00:36:44;7.40;;;1.17;;
4462;SDS011;2244;50.200;8.220;2023-03-23T00:39:11;8.47;;;1.40;;
4462;SDS011;2244;50.200;8.220;2023-03-23T00:41:38;8.30;;;1.20;;
4462;SDS011;2244;50.200;8.220;2023-03-23T00:44:04;8.47;;;1.30;;
4462;SDS011;2244;50.200;8.220;2023-03-23T00:46:32;7.70;;;1.13;;
4462;SDS011;2244;50.200;8.220;2023-03-23T00:48:59;9.57;;;1.30;;
4462;SDS011;2244;50.200;8.220;2023-03-23T00:51:25;9.00;;;1.50;;
4462;SDS011;2244;50.200;8.220;2023-03-23T00:53:52;8.93;;;1.30;;
4462;SDS011;2244;50.200;8.220;2023-03-23T00:56:18;8.43;;;1.50;;
4462;SDS011;2244;50.200;8.220;2023-03-23T00:58:45;7.67;;;0.90;;
4462;SDS011;2244;50.200;8.220;2023-03-23T01:01:12;8.33;;;1.40;;
4462;SDS011;2244;50.200;8.220;2023-03-23T01:03:38;11.63;;;1.17;;
4462;SDS011;2244;50.200;8.220;2023-03-23T01:06:06;8.13;;;1.30;;
4462;SDS011;2244;50.200;8.220;2023-03-23T01:08:33;7.07;;;1.10;;
4462;SDS011;2244;50.200;8.220;2023-03-23T01:11:06;7.70;;;1.53;;
4462;SDS011;2244;50.200;8.220;2023-03-23T01:13:33;7.60;;;1.27;;
4462;SDS011;2244;50.200;8.220;2023-03-23T01:15:59;12.53;;;1.67;;
4462;SDS011;2244;50.200;8.220;2023-03-23T01:18:26;7.40;;;1.30;;
4462;SDS011;2244;50.200;8.220;2023-03-23T01:20:52;8.97;;;1.43;;
4462;SDS011;2244;50.200;8.220;2023-03-23T01:23:19;7.40;;;1.20;;
4462;SDS011;2244;50.200;8.220;2023-03-23T01:25:45;7.80;;;1.17;;
4462;SDS011;2244;50.200;8.220;2023-03-23T01:28:12;8.63;;;1.30;;
4462;SDS011;2244;50.200;8.220;2023-03-23T01:30:38;9.10;;;1.30;;
4462;SDS011;2244;50.200;8.220;2023-03-23T01:33:05;8.20;;;1.10;;
4462;SDS011;2244;50.200;8.220;2023-03-23T01:35:32;7.43;;;1.03;;
4462;SDS011;2244;50.200;8.220;2023-03-23T01:37:58;7.60;;;1.40;;
4462;SDS011;2244;50.200;8.220;2023-03-23T01:40:26;8.17;;;1.30;;
4462;SDS011;2244;50.200;8.220;2023-03-23T01:42:53;8.40;;;1.30;;
4462;SDS011;2244;50.200;8.220;2023-03-23T01:45:22;7.67;;;1.40;;
4462;SDS011;2244;50.200;8.220;2023-03-23T01:47:57;7.27;;;1.10;;
4462;SDS011;2244;50.200;8.220;2023-03-23T01:50:19;7.03;;;1.07;;
4462;SDS011;2244;50.200;8.220;2023-03-23T01:52:49;7.37;;;1.23;;
4462;SDS011;2244;50.200;8.220;2023-03-23T01:55:16;7.10;;;1.10;;
4462;SDS011;2244;50.200;8.220;2023-03-23T01:57:43;8.07;;;1.40;;
4462;SDS011;2244;50.200;8.220;2023-03-23T02:00:10;11.93;;;1.50;;
4462;SDS011;2244;50.200;8.220;2023-03-23T02:02:39;9.47;;;1.10;;
4462;SDS011;2244;50.200;8.220;2023-03-23T02:05:08;7.30;;;1.27;;
4462;SDS011;2244;50.200;8.220;2023-03-23T02:07:35;7.67;;;1.13;;
4462;SDS011;2244;50.200;8.220;2023-03-23T02:10:01;9.47;;;1.30;;
4462;SDS011;2244;50.200;8.220;2023-03-23T02:12:28;7.20;;;1.20;;
4462;SDS011;2244;50.200;8.220;2023-03-23T02:14:55;8.87;;;1.37;;
4462;SDS011;2244;50.200;8.220;2023-03-23T02:17:32;7.80;;;1.33;;
4462;SDS011;2244;50.200;8.220;2023-03-23T02:25:09;8.00;;;1.60;;
4462;SDS011;2244;50.200;8.220;2023-03-23T02:27:40;9.30;;;1.40;;
4462;SDS011;2244;50.200;8.220;2023-03-23T02:32:39;8.00;;;1.20;;
4462;SDS011;2244;50.200;8.220;2023-03-23T02:35:06;7.73;;;1.20;;
4462;SDS011;2244;50.200;8.220;2023-03-23T02:37:39;7.37;;;1.40;;
4462;SDS011;2244;50.200;8.220;2023-03-23T02:40:02;8.23;;;1.20;;
4462;SDS011;2244;50.200;8.220;2023-03-23T02:42:30;9.60;;;1.13;;
4462;SDS011;2244;50.200;8.220;2023-03-23T02:44:58;7.80;;;1.40;;
4462;SDS011;2244;50.200;8.220;2023-03-23T02:47:26;8.63;;;1.70;;
4462;SDS011;2244;50.200;8.220;2023-03-23T02:49:54;7.90;;;1.30;;
4462;SDS011;2244;50.200;8.220;2023-03-23T02:52:23;8.00;;;1.50;;
4462;SDS011;2244;50.200;8.220;2023-03-23T02:54:50;8.43;;;1.57;;
4462;SDS011;2244;50.200;8.220;2023-03-23T02:57:18;7.80;;;1.53;;
4462;SDS011;2244;50.200;8.220;2023-03-23T02:59:45;8.57;;;1.33;;
4462;SDS011;2244;50.200;8.220;2023-03-23T03:05:01;7.53;;;1.23;;
4462;SDS011;2244;50.200;8.220;2023-03-23T03:07:38;8.40;;;1.43;;
4462;SDS011;2244;50.200;8.220;2023-03-23T03:10:04;9.10;;;1.37;;
4462;SDS011;2244;50.200;8.220;2023-03-23T03:12:34;7.63;;;1.30;;
4462;SDS011;2244;50.200;8.220;2023-03-23T03:17:29;9.00;;;1.90;;
4462;SDS011;2244;50.200;8.220;2023-03-23T03:19:58;8.13;;;1.57;;
4462;SDS011;2244;50.200;8.220;2023-03-23T03:22:27;7.57;;;1.47;;
4462;SDS011;2244;50.200;8.220;2023-03-23T03:24:55;9.07;;;1.60;;
4462;SDS011;2244;50.200;8.220;2023-03-23T03:27:22;8.37;;;1.50;;
4462;SDS011;2244;50.200;8.220;2023-03-23T03:29:55;8.40;;;1.53;;
4462;SDS011;2244;50.200;8.220;2023-03-23T03:32:19;7.60;;;1.70;;
4462;SDS011;2244;50.200;8.220;2023-03-23T03:34:47;10.80;;;1.70;;
4462;SDS011;2244;50.200;8.220;2023-03-23T03:37:15;8.17;;;1.73;;
4462;SDS011;2244;50.200;8.220;2023-03-23T03:39:41;10.83;;;1.30;;
4462;SDS011;2244;50.200;8.220;2023-03-23T03:42:08;8.50;;;1.60;;
4462;SDS011;2244;50.200;8.220;2023-03-23T03:44:34;8.00;;;1.63;;
4462;SDS011;2244;50.200;8.220;2023-03-23T03:47:01;8.30;;;1.40;;
4462;SDS011;2244;50.200;8.220;2023-03-23T03:49:27;9.03;;;1.83;;
4462;SDS011;2244;50.200;8.220;2023-03-23T03:51:54;10.47;;;1.70;;
4462;SDS011;2244;50.200;8.220;2023-03-23T03:54:21;8.50;;;1.80;;
4462;SDS011;2244;50.200;8.220;2023-03-23T03:56:47;8.13;;;1.57;;
4462;SDS011;2244;50.200;8.220;2023-03-23T03:59:14;7.77;;;1.40;;
4462;SDS011;2244;50.200;8.220;2023-03-23T04:01:40;7.93;;;1.43;;
4462;SDS011;2244;50.200;8.220;2023-03-23T04:04:07;11.10;;;1.90;;
4462;SDS011;2244;50.200;8.220;2023-03-23T04:06:33;8.50;;;1.70;;
4462;SDS011;2244;50.200;8.220;2023-03-23T04:09:02;9.93;;;1.87;;
4462;SDS011;2244;50.200;8.220;2023-03-23T04:11:30;8.40;;;1.50;;
4462;SDS011;2244;50.200;8.220;2023-03-23T04:13:57;8.57;;;1.97;;
4462;SDS011;2244;50.200;8.220;2023-03-23T04:16:23;8.30;;;1.70;;
4462;SDS011;2244;50.200;8.220;2023-03-23T04:18:51;9.10;;;1.90;;
4462;SDS011;2244;50.200;8.220;2023-03-23T04:21:19;9.33;;;2.10;;
4462;SDS011;2244;50.200;8.220;2023-03-23T04:23:46;7.50;;;1.40;;
4462;SDS011;2244;50.200;8.220;2023-03-23T04:26:12;7.50;;;1.57;;
4462;SDS011;2244;50.200;8.220;2023-03-23T04:28:39;8.40;;;1.60;;
4462;SDS011;2244;50.200;8.220;2023-03-23T04:31:06;7.73;;;1.40;;
4462;SDS011;2244;50.200;8.220;2023-03-23T04:33:34;8.77;;;1.80;;
4462;SDS011;2244;50.200;8.220;2023-03-23T04:36:02;8.00;;;1.80;;
4462;SDS011;2244;50.200;8.220;2023-03-23T04:38:31;11.63;;;1.40;;
4462;SDS011;2244;50.200;8.220;2023-03-23T04:40:58;8.70;;;1.70;;
4462;SDS011;2244;50.200;8.220;2023-03-23T04:43:26;9.60;;;1.80;;
4462;SDS011;2244;50.200;8.220;2023-03-23T04:45:54;9.20;;;1.90;;
4462;SDS011;2244;50.200;8.220;2023-03-23T04:48:23;7.90;;;1.60;;
4462;SDS011;2244;50.200;8.220;2023-03-23T04:50:49;9.27;;;1.50;;
4462;SDS011;2244;50.200;8.220;2023-03-23T04:53:16;8.43;;;1.60;;
4462;SDS011;2244;50.200;8.220;2023-03-23T04:55:43;7.90;;;1.80;;
4462;SDS011;2244;50.200;8.220;2023-03-23T04:58:10;8.50;;;1.60;;
4462;SDS011;2244;50.200;8.220;2023-03-23T05:00:38;8.30;;;1.93;;
4462;SDS011;2244;50.200;8.220;2023-03-23T05:03:06;8.50;;;1.87;;
4462;SDS011;2244;50.200;8.220;2023-03-23T05:05:33;9.90;;;1.70;;
4462;SDS011;2244;50.200;8.220;2023-03-23T05:08:01;7.83;;;1.63;;
4462;SDS011;2244;50.200;8.220;2023-03-23T05:10:27;7.80;;;1.50;;
4462;SDS011;2244;50.200;8.220;2023-03-23T05:12:54;8.33;;;1.80;;
4462;SDS011;2244;50.200;8.220;2023-03-23T05:15:21;9.23;;;2.20;;
4462;SDS011;2244;50.200;8.220;2023-03-23T05:17:47;9.33;;;1.80;;
4462;SDS011;2244;50.200;8.220;2023-03-23T05:20:15;9.10;;;1.80;;
4462;SDS011;2244;50.200;8.220;2023-03-23T05:22:43;7.80;;;1.67;;
4462;SDS011;2244;50.200;8.220;2023-03-23T05:25:10;8.47;;;1.77;;
4462;SDS011;2244;50.200;8.220;2023-03-23T05:27:37;9.17;;;1.83;;
4462;SDS011;2244;50.200;8.220;2023-03-23T05:30:04;7.80;;;1.97;;
4462;SDS011;2244;50.200;8.220;2023-03-23T05:32:32;7.90;;;1.90;;
4462;SDS011;2244;50.200;8.220;2023-03-23T05:34:59;8.90;;;1.60;;
4462;SDS011;2244;50.200;8.220;2023-03-23T05:37:26;10.13;;;2.10;;
4462;SDS011;2244;50.200;8.220;2023-03-23T05:39:55;10.17;;;1.77;;
4462;SDS011;2244;50.200;8.220;2023-03-23T05:42:22;8.40;;;1.90;;
4462;SDS011;2244;50.200;8.220;2023-03-23T05:44:49;10.43;;;1.87;;
4462;SDS011;2244;50.200;8.220;2023-03-23T05:47:16;8.10;;;1.77;;
4462;SDS011;2244;50.200;8.220;2023-03-23T05:49:42;8.57;;;2.00;;
4462;SDS011;2244;50.200;8.220;2023-03-23T05:52:09;7.80;;;1.60;;
4462;SDS011;2244;50.200;8.220;2023-03-23T05:54:36;7.70;;;1.73;;
4462;SDS011;2244;50.200;8.220;2023-03-23T05:57:03;10.03;;;1.80;;
4462;SDS011;2244;50.200;8.220;2023-03-23T05:59:31;8.90;;;1.70;;
4462;SDS011;2244;50.200;8.220;2023-03-23T06:01:59;8.00;;;1.60;;
4462;SDS011;2244;50.200;8.220;2023-03-23T06:04:25;9.27;;;1.90;;
4462;SDS011;2244;50.200;8.220;2023-03-23T06:06:52;8.67;;;2.17;;
4462;SDS011;2244;50.200;8.220;2023-03-23T06:09:19;7.67;;;1.70;;
4462;SDS011;2244;50.200;8.220;2023-03-23T06:11:46;7.87;;;1.50;;
4462;SDS011;2244;50.200;8.220;2023-03-23T06:14:16;8.00;;;1.80;;
4462;SDS011;2244;50.200;8.220;2023-03-23T06:16:43;8.60;;;2.00;;
4462;SDS011;2244;50.200;8.220;2023-03-23T06:19:09;10.70;;;2.13;;
4462;SDS011;2244;50.200;8.220;2023-03-23T06:21:36;7.80;;;1.60;;
4462;SDS011;2244;50.200;8.220;2023-03-23T06:24:04;9.50;;;2.00;;
4462;SDS011;2244;50.200;8.220;2023-03-23T06:26:32;7.97;;;1.73;;
4462;SDS011;2244;50.200;8.220;2023-03-23T06:28:58;8.77;;;1.90;;
4462;SDS011;2244;50.200;8.220;2023-03-23T06:31:26;9.27;;;2.07;;
4462;SDS011;2244;50.200;8.220;2023-03-23T06:33:53;8.23;;;1.77;;
4462;SDS011;2244;50.200;8.220;2023-03-23T06:36:20;8.33;;;1.87;;
4462;SDS011;2244;50.200;8.220;2023-03-23T06:38:48;9.00;;;1.80;;
4462;SDS011;2244;50.200;8.220;2023-03-23T06:41:14;7.80;;;1.60;;
4462;SDS011;2244;50.200;8.220;2023-03-23T06:43:41;11.03;;;1.73;;
4462;SDS011;2244;50.200;8.220;2023-03-23T06:46:09;7.83;;;1.70;;
4462;SDS011;2244;50.200;8.220;2023-03-23T06:48:36;10.73;;;2.30;;
4462;SDS011;2244;50.200;8.220;2023-03-23T06:51:02;8.37;;;1.90;;
4462;SDS011;2244;50.200;8.220;2023-03-23T06:53:29;9.03;;;1.77;;
4462;SDS011;2244;50.200;8.220;2023-03-23T06:55:56;8.60;;;1.80;;
4462;SDS011;2244;50.200;8.220;2023-03-23T06:58:22;8.20;;;1.70;;
4462;SDS011;2244;50.200;8.220;2023-03-23T07:00:53;10.00;;;2.40;;
4462;SDS011;2244;50.200;8.220;2023-03-23T07:03:22;9.27;;;1.87;;
4462;SDS011;2244;50.200;8.220;2023-03-23T07:05:49;10.90;;;2.00;;
4462;SDS011;2244;50.200;8.220;2023-03-23T07:08:15;12.63;;;2.50;;
4462;SDS011;2244;50.200;8.220;2023-03-23T07:10:42;8.57;;;2.30;;
4462;SDS011;2244;50.200;8.220;2023-03-23T07:13:09;8.47;;;2.17;;
4462;SDS011;2244;50.200;8.220;2023-03-23T07:15:36;9.80;;;2.10;;
4462;SDS011;2244;50.200;8.220;2023-03-23T07:18:03;8.90;;;2.20;;
4462;SDS011;2244;50.200;8.220;2023-03-23T07:20:29;9.00;;;2.40;;
4462;SDS011;2244;50.200;8.220;2023-03-23T07:22:56;10.40;;;2.10;;
4462;SDS011;2244;50.200;8.220;2023-03-23T07:25:22;9.30;;;2.00;;
4462;SDS011;2244;50.200;8.220;2023-03-23T07:27:49;9.00;;;2.30;;
4462;SDS011;2244;50.200;8.220;2023-03-23T07:30:15;8.40;;;1.97;;
4462;SDS011;2244;50.200;8.220;2023-03-23T07:32:42;8.70;;;2.13;;
4462;SDS011;2244;50.200;8.220;2023-03-23T07:35:09;9.53;;;2.33;;
4462;SDS011;2244;50.200;8.220;2023-03-23T07:37:36;10.67;;;1.90;;
4462;SDS011;2244;50.200;8.220;2023-03-23T07:40:03;9.17;;;2.50;;
4462;SDS011;2244;50.200;8.220;2023-03-23T07:42:34;9.10;;;2.80;;
4462;SDS011;2244;50.200;8.220;2023-03-23T07:45:00;10.47;;;2.50;;
4462;SDS011;2244;50.200;8.220;2023-03-23T07:47:27;8.87;;;2.07;;
4462;SDS011;2244;50.200;8.220;2023-03-23T07:49:53;10.53;;;2.57;;
4462;SDS011;2244;50.200;8.220;2023-03-23T07:52:21;9.70;;;2.40;;
4462;SDS011;2244;50.200;8.220;2023-03-23T07:54:48;8.43;;;2.17;;
4462;SDS011;2244;50.200;8.220;2023-03-23T07:57:14;10.97;;;2.47;;
4462;SDS011;2244;50.200;8.220;2023-03-23T07:59:41;8.40;;;2.23;;
4462;SDS011;2244;50.200;8.220;2023-03-23T08:02:08;8.73;;;2.50;;
4462;SDS011;2244;50.200;8.220;2023-03-23T08:04:35;9.27;;;2.63;;
4462;SDS011;2244;50.200;8.220;2023-03-23T08:07:03;8.50;;;2.30;;
4462;SDS011;2244;50.200;8.220;2023-03-23T08:09:31;11.10;;;2.67;;
4462;SDS011;2244;50.200;8.220;2023-03-23T08:11:57;10.73;;;3.10;;
4462;SDS011;2244;50.200;8.220;2023-03-23T08:14:24;10.53;;;2.77;;
4462;SDS011;2244;50.200;8.220;2023-03-23T08:16:52;10.00;;;2.70;;
4462;SDS011;2244;50.200;8.220;2023-03-23T08:19:21;8.60;;;2.50;;
4462;SDS011;2244;50.200;8.220;2023-03-23T08:21:48;9.10;;;2.60;;
4462;SDS011;2244;50.200;8.220;2023-03-23T08:24:15;9.60;;;2.63;;
4462;SDS011;2244;50.200;8.220;2023-03-23T08:26:41;8.53;;;2.43;;
4462;SDS011;2244;50.200;8.220;2023-03-23T08:29:08;9.00;;;2.80;;
4462;SDS011;2244;50.200;8.220;2023-03-23T08:31:35;9.20;;;2.63;;
4462;SDS011;2244;50.200;8.220;2023-03-23T08:34:02;11.80;;;2.47;;
4462;SDS011;2244;50.200;8.220;2023-03-23T08:36:31;10.70;;;2.87;;
4462;SDS011;2244;50.200;8.220;2023-03-23T08:38:57;9.10;;;2.70;;
4462;SDS011;2244;50.200;8.220;2023-03-23T08:41:25;8.40;;;2.67;;
4462;SDS011;2244;50.200;8.220;2023-03-23T08:43:51;10.00;;;2.93;;
4462;SDS011;2244;50.200;8.220;2023-03-23T08:46:18;8.33;;;2.50;;
4462;SDS011;2244;50.200;8.220;2023-03-23T08:48:45;9.57;;;2.43;;
4462;SDS011;2244;50.200;8.220;2023-03-23T08:51:12;8.47;;;2.80;;
4462;SDS011;2244;50.200;8.220;2023-03-23T08:53:38;9.87;;;2.80;;
4462;SDS011;2244;50.200;8.220;2023-03-23T08:56:08;8.40;;;2.60;;
4462;SDS011;2244;50.200;8.220;2023-03-23T08:58:35;9.87;;;2.80;;
4462;SDS011;2244;50.200;8.220;2023-03-23T09:01:02;11.30;;;2.77;;
4462;SDS011;2244;50.200;8.220;2023-03-23T09:03:29;9.20;;;2.70;;
4462;SDS011;2244;50.200;8.220;2023-03-23T09:06:04;9.83;;;2.60;;
4462;SDS011;2244;50.200;8.220;2023-03-23T09:08:27;8.60;;;2.17;;
4462;SDS011;2244;50.200;8.220;2023-03-23T09:10:57;9.10;;;2.50;;
4462;SDS011;2244;50.200;8.220;2023-03-23T09:13:23;10.03;;;2.60;;
4462;SDS011;2244;50.200;8.220;2023-03-23T09:15:49;9.27;;;1.97;;
4462;SDS011;2244;50.200;8.220;2023-03-23T09:18:17;9.50;;;2.23;;
4462;SDS011;2244;50.200;8.220;2023-03-23T09:20:44;8.50;;;2.23;;
4462;SDS011;2244;50.200;8.220;2023-03-23T09:23:11;9.13;;;2.30;;
4462;SDS011;2244;50.200;8.220;2023-03-23T09:25:38;8.90;;;2.10;;
4462;SDS011;2244;50.200;8.220;2023-03-23T09:28:05;8.50;;;2.00;;
4462;SDS011;2244;50.200;8.220;2023-03-23T09:30:32;9.30;;;2.13;;
4462;SDS011;2244;50.200;8.220;2023-03-23T09:32:59;8.80;;;2.20;;
4462;SDS011;2244;50.200;8.220;2023-03-23T09:35:27;7.30;;;1.30;;
4462;SDS011;2244;50.200;8.220;2023-03-23T09:37:53;7.60;;;1.17;;
4462;SDS011;2244;50.200;8.220;2023-03-23T09:40:21;7.33;;;1.27;;
4462;SDS011;2244;50.200;8.220;2023-03-23T09:48:05;7.87;;;0.83;;
4462;SDS011;2244;50.200;8.220;2023-03-23T09:50:30;7.30;;;1.10;;
4462;SDS011;2244;50.200;8.220;2023-03-23T09:53:08;8.10;;;1.30;;
4462;SDS011;2244;50.200;8.220;2023-03-23T09:55:28;8.70;;;1.20;;
4462;SDS011;2244;50.200;8.220;2023-03-23T09:57:59;7.30;;;1.00;;
4462;SDS011;2244;50.200;8.220;2023-03-23T10:00:30;7.63;;;1.10;;
4462;SDS011;2244;50.200;8.220;2023-03-23T10:02:59;8.53;;;1.60;;
4462;SDS011;2244;50.200;8.220;2023-03-23T10:05:34;7.30;;;1.17;;
4462;SDS011;2244;50.200;8.220;2023-03-23T10:08:01;8.27;;;1.27;;
4462;SDS011;2244;50.200;8.220;2023-03-23T10:10:34;9.53;;;1.30;;
4462;SDS011;2244;50.200;8.220;2023-03-23T10:13:00;8.50;;;1.50;;
4462;SDS011;2244;50.200;8.220;2023-03-23T10:15:33;7.97;;;1.27;;
4462;SDS011;2244;50.200;8.220;2023-03-23T10:18:01;9.63;;;1.10;;
4462;SDS011;2244;50.200;8.220;2023-03-23T10:20:30;12.30;;;1.33;;
4462;SDS011;2244;50.200;8.220;2023-03-23T10:23:09;8.87;;;1.00;;
4462;SDS011;2244;50.200;8.220;2023-03-23T10:25:36;7.07;;;0.90;;
4462;SDS011;2244;50.200;8.220;2023-03-23T10:28:09;7.40;;;1.10;;
4462;SDS011;2244;50.200;8.220;2023-03-23T10:30:44;8.50;;;1.00;;
4462;SDS011;2244;50.200;8.220;2023-03-23T10:33:20;7.63;;;1.07;;
4462;SDS011;2244;50.200;8.220;2023-03-23T10:35:48;7.47;;;0.80;;
4462;SDS011;2244;50.200;8.220;2023-03-23T10:38:22;8.13;;;1.00;;
4462;SDS011;2244;50.200;8.220;2023-03-23T10:40:55;8.23;;;1.00;;
4462;SDS011;2244;50.200;8.220;2023-03-23T10:43:22;8.80;;;1.50;;
4462;SDS011;2244;50.200;8.220;2023-03-23T10:45:54;7.60;;;0.90;;
4462;SDS011;2244;50.200;8.220;2023-03-23T10:48:18;8.23;;;1.00;;
4462;SDS011;2244;50.200;8.220;2023-03-23T10:50:46;7.10;;;0.93;;
4462;SDS011;2244;50.200;8.220;2023-03-23T10:53:15;7.80;;;1.20;;
4462;SDS011;2244;50.200;8.220;2023-03-23T10:55:42;7.87;;;1.10;;
4462;SDS011;2244;50.200;8.220;2023-03-23T10:58:22;7.20;;;0.80;;
4462;SDS011;2244;50.200;8.220;2023-03-23T11:00:42;7.20;;;0.93;;
4462;SDS011;2244;50.200;8.220;2023-03-23T11:05:43;7.73;;;0.90;;
4462;SDS011;2244;50.200;8.220;2023-03-23T11:08:12;7.50;;;0.93;;
4462;SDS011;2244;50.200;8.220;2023-03-23T11:10:47;7.10;;;0.90;;
4462;SDS011;2244;50.200;8.220;2023-03-23T11:13:14;7.87;;;1.10;;
4462;SDS011;2244;50.200;8.220;2023-03-23T11:15:41;10.10;;;1.00;;
4462;SDS011;2244;50.200;8.220;2023-03-23T11:18:12;7.50;;;1.20;;
4462;SDS011;2244;50.200;8.220;2023-03-23T11:20:40;7.80;;;0.93;;
4462;SDS011;2244;50.200;8.220;2023-03-23T11:25:56;7.53;;;1.00;;
4462;SDS011;2244;50.200;8.220;2023-03-23T11:28:35;7.47;;;1.10;;
4462;SDS011;2244;50.200;8.220;2023-03-23T11:30:58;7.83;;;1.00;;
4462;SDS011;2244;50.200;8.220;2023-03-23T11:33:35;8.80;;;1.00;;
4462;SDS011;2244;50.200;8.220;2023-03-23T11:35:54;7.53;;;1.03;;
4462;SDS011;2244;50.200;8.220;2023-03-23T11:38:22;7.20;;;1.00;;
4462;SDS011;2244;50.200;8.220;2023-03-23T11:40:51;9.00;;;1.10;;
4462;SDS011;2244;50.200;8.220;2023-03-23T11:43:20;7.53;;;0.90;;
4462;SDS011;2244;50.200;8.220;2023-03-23T11:45:50;9.23;;;1.10;;
4462;SDS011;2244;50.200;8.220;2023-03-23T11:51:06;8.30;;;1.00;;
4462;SDS011;2244;50.200;8.220;2023-03-23T11:53:45;7.10;;;1.00;;
4462;SDS011;2244;50.200;8.220;2023-03-23T11:58:38;8.50;;;0.97;;
4462;SDS011;2244;50.200;8.220;2023-03-23T12:01:15;7.73;;;1.10;;
4462;SDS011;2244;50.200;8.220;2023-03-23T12:09:05;7.20;;;1.00;;
4462;SDS011;2244;50.200;8.220;2023-03-23T12:19:38;7.23;;;1.07;;
4462;SDS011;2244;50.200;8.220;2023-03-23T12:32:41;7.40;;;1.07;;
4462;SDS011;2244;50.200;8.220;2023-03-23T12:37:58;7.20;;;0.90;;
4462;SDS011;2244;50.200;8.220;2023-03-23T12:45:52;8.13;;;1.00;;
4462;SDS011;2244;50.200;8.220;2023-03-23T12:48:17;6.83;;;0.80;;
4462;SDS011;2244;50.200;8.220;2023-03-23T12:50:59;7.87;;;0.90;;
4462;SDS011;2244;50.200;8.220;2023-03-23T12:53:20;7.53;;;1.00;;
4462;SDS011;2244;50.200;8.220;2023-03-23T12:55:48;6.80;;;0.83;;
4462;SDS011;2244;50.200;8.220;2023-03-23T12:58:16;7.17;;;0.80;;
4462;SDS011;2244;50.200;8.220;2023-03-23T13:03:14;10.07;;;1.27;;
4462;SDS011;2244;50.200;8.220;2023-03-23T13:05:43;9.10;;;1.33;;
4462;SDS011;2244;50.200;8.220;2023-03-23T13:08:21;7.17;;;1.10;;
4462;SDS011;2244;50.200;8.220;2023-03-23T13:10:49;8.60;;;1.00;;
4462;SDS011;2244;50.200;8.220;2023-03-23T13:13:17;7.00;;;0.90;;
4462;SDS011;2244;50.200;8.220;2023-03-23T13:15:48;8.90;;;1.20;;
4462;SDS011;2244;50.200;8.220;2023-03-23T13:18:16;7.10;;;1.00;;
4462;SDS011;2244;50.200;8.220;2023-03-23T13:20:55;8.20;;;1.00;;
4462;SDS011;2244;50.200;8.220;2023-03-23T13:23:23;7.53;;;1.10;;
4462;SDS011;2244;50.200;8.220;2023-03-23T13:25:58;8.57;;;1.57;;
4462;SDS011;2244;50.200;8.220;2023-03-23T13:28:47;7.80;;;1.20;;
4462;SDS011;2244;50.200;8.220;2023-03-23T13:31:01;7.23;;;1.20;;
4462;SDS011;2244;50.200;8.220;2023-03-23T13:33:29;7.30;;;0.90;;
4462;SDS011;2244;50.200;8.220;2023-03-23T13:35:56;7.17;;;1.20;;
4462;SDS011;2244;50.200;8.220;2023-03-23T13:38:24;7.33;;;1.13;;
4462;SDS011;2244;50.200;8.220;2023-03-23T13:40:51;7.10;;;1.00;;
4462;SDS011;2244;50.200;8.220;2023-03-23T13:43:26;7.20;;;1.10;;
4462;SDS011;2244;50.200;8.220;2023-03-23T13:45:53;8.70;;;1.10;;
4462;SDS011;2244;50.200;8.220;2023-03-23T13:48:22;6.90;;;0.80;;
4462;SDS011;2244;50.200;8.220;2023-03-23T13:50:51;6.97;;;0.90;;
4462;SDS011;2244;50.200;8.220;2023-03-23T13:53:25;8.63;;;1.00;;
4462;SDS011;2244;50.200;8.220;2023-03-23T13:55:50;7.20;;;0.90;;
4462;SDS011;2244;50.200;8.220;2023-03-23T13:58:27;7.30;;;1.10;;
4462;SDS011;2244;50.200;8.220;2023-03-23T14:01:01;11.10;;;1.10;;
4462;SDS011;2244;50.200;8.220;2023-03-23T14:03:25;7.13;;;1.00;;
4462;SDS011;2244;50.200;8.220;2023-03-23T14:10:56;10.37;;;1.20;;
4462;SDS011;2244;50.200;8.220;2023-03-23T14:13:32;7.93;;;1.07;;
4462;SDS011;2244;50.200;8.220;2023-03-23T14:16:03;7.83;;;1.20;;
4462;SDS011;2244;50.200;8.220;2023-03-23T14:18:31;7.27;;;1.00;;
4462;SDS011;2244;50.200;8.220;2023-03-23T14:20:58;9.37;;;1.37;;
4462;SDS011;2244;50.200;8.220;2023-03-23T14:23:25;7.70;;;1.10;;
4462;SDS011;2244;50.200;8.220;2023-03-23T14:25:56;7.70;;;1.10;;
4462;SDS011;2244;50.200;8.220;2023-03-23T14:28:23;8.93;;;1.20;;
4462;SDS011;2244;50.200;8.220;2023-03-23T14:30:52;7.77;;;1.00;;
4462;SDS011;2244;50.200;8.220;2023-03-23T14:33:18;7.40;;;1.10;;
4462;SDS011;2244;50.200;8.220;2023-03-23T14:35:45;7.40;;;1.00;;
4462;SDS011;2244;50.200;8.220;2023-03-23T14:38:19;8.50;;;1.27;;
4462;SDS011;2244;50.200;8.220;2023-03-23T14:40:45;7.20;;;1.10;;
4462;SDS011;2244;50.200;8.220;2023-03-23T14:43:14;8.63;;;1.60;;
4462;SDS011;2244;50.200;8.220;2023-03-23T14:45:41;7.33;;;1.20;;
4462;SDS011;2244;50.200;8.220;2023-03-23T14:48:08;7.80;;;1.40;;
4462;SDS011;2244;50.200;8.220;2023-03-23T14:50:37;7.80;;;1.50;;
4462;SDS011;2244;50.200;8.220;2023-03-23T14:53:16;10.00;;;2.07;;
4462;SDS011;2244;50.200;8.220;2023-03-23T14:55:42;7.70;;;1.30;;
4462;SDS011;2244;50.200;8.220;2023-03-23T14:58:12;11.30;;;1.60;;
4462;SDS011;2244;50.200;8.220;2023-03-23T15:00:41;8.57;;;1.53;;
4462;SDS011;2244;50.200;8.220;2023-03-23T15:03:11;8.57;;;1.30;;
4462;SDS011;2244;50.200;8.220;2023-03-23T15:05:38;9.30;;;1.53;;
4462;SDS011;2244;50.200;8.220;2023-03-23T15:08:07;8.37;;;1.47;;
4462;SDS011;2244;50.200;8.220;2023-03-23T15:10:34;8.00;;;1.30;;
4462;SDS011;2244;50.200;8.220;2023-03-23T15:13:01;8.77;;;1.20;;
4462;SDS011;2244;50.200;8.220;2023-03-23T15:15:31;8.63;;;1.40;;
4462;SDS011;2244;50.200;8.220;2023-03-23T15:17:59;8.03;;;1.47;;
4462;SDS011;2244;50.200;8.220;2023-03-23T15:22:54;8.10;;;1.30;;
4462;SDS011;2244;50.200;8.220;2023-03-23T15:27:50;9.60;;;1.57;;
4462;SDS011;2244;50.200;8.220;2023-03-23T15:32:45;10.00;;;1.47;;
4462;SDS011;2244;50.200;8.220;2023-03-23T15:35:13;8.50;;;1.30;;
4462;SDS011;2244;50.200;8.220;2023-03-23T15:37:44;9.67;;;1.23;;
4462;SDS011;2244;50.200;8.220;2023-03-23T15:40:24;8.83;;;1.33;;
4462;SDS011;2244;50.200;8.220;2023-03-23T15:43:05;9.63;;;1.83;;
4462;SDS011;2244;50.200;8.220;2023-03-23T15:45:24;9.90;;;1.97;;
4462;SDS011;2244;50.200;8.220;2023-03-23T15:47:50;9.13;;;2.00;;
4462;SDS011;2244;50.200;8.220;2023-03-23T15:50:31;11.50;;;1.90;;
4462;SDS011;2244;50.200;8.220;2023-03-23T15:52:48;8.60;;;1.90;;
4462;SDS011;2244;50.200;8.220;2023-03-23T15:57:47;10.10;;;1.80;;
4462;SDS011;2244;50.200;8.220;2023-03-23T16:00:18;10.10;;;1.80;;
4462;SDS011;2244;50.200;8.220;2023-03-23T16:02:46;8.67;;;1.50;;
4462;SDS011;2244;50.200;8.220;2023-03-23T16:05:14;9.00;;;1.87;;
4462;SDS011;2244;50.200;8.220;2023-03-23T16:07:41;8.43;;;1.37;;
4462;SDS011;2244;50.200;8.220;2023-03-23T16:10:19;8.73;;;1.70;;
4462;SDS011;2244;50.200;8.220;2023-03-23T16:12:47;8.10;;;1.50;;
4462;SDS011;2244;50.200;8.220;2023-03-23T16:15:14;8.50;;;1.57;;
4462;SDS011;2244;50.200;8.220;2023-03-23T16:17:42;7.77;;;1.53;;
4462;SDS011;2244;50.200;8.220;2023-03-23T16:22:41;10.63;;;1.40;;
4462;SDS011;2244;50.200;8.220;2023-03-23T16:25:08;9.07;;;1.83;;
4462;SDS011;2244;50.200;8.220;2023-03-23T16:27:37;7.80;;;1.43;;
4462;SDS011;2244;50.200;8.220;2023-03-23T16:32:40;8.73;;;1.70;;
4462;SDS011;2244;50.200;8.220;2023-03-23T16:35:11;8.97;;;2.00;;
4462;SDS011;2244;50.200;8.220;2023-03-23T16:37:42;10.10;;;2.70;;
4462;SDS011;2244;50.200;8.220;2023-03-23T16:40:09;8.90;;;1.67;;
4462;SDS011;2244;50.200;8.220;2023-03-23T16:42:36;8.37;;;1.67;;